pigcms.cn alexa rank chart, pigcms.cn alexa rank daily changes

pigcms.cn alexa rank chart, pigcms.cn alexa rank daily changes

pigcms.cn
Actual rank:
693 396

RANK HISTORY

Date Rank Diff
2017/02/22 693 396 +338
2017/02/21 693 058 -3 901
2017/02/20 696 959 -3 936
2017/02/19 700 895 -2 397
2017/02/18 703 292 -2 116
2017/02/17 705 408 -138 091
2017/02/16 843 499 +147 088
2017/02/15 696 411 -170
2017/02/14 696 581 -64 519
2017/02/13 761 100 -4 581
2017/02/12 765 681 -1 943
2017/02/11 767 624 -1 783
2017/02/10 769 407 +1 436
2017/02/09 767 971 +174 423
2017/02/08 593 548 -2 192
2017/02/07 595 740 -5 095
2017/02/06 600 835 +57 080
2017/02/05 543 755 -71 783
2017/02/04 615 538 -1 320
2017/02/03 616 858 +1 985
2017/02/02 614 873 +1 324
2017/02/01 613 549 -1 068
2017/01/31 614 617 -4 605
2017/01/30 619 222 +67 894
2017/01/29 551 328 +6 328
2017/01/28 545 000 -856
2017/01/27 545 856 -98 345
2017/01/26 644 201 +2 922
2017/01/25 641 279 +1 039
2017/01/24 640 240 +93 895
2017/01/23 546 345 -1 537
2017/01/22 547 882 +79
2017/01/21 547 803 -322
2017/01/20 548 125 +2 205
2017/01/19 545 920 +2 383
2017/01/18 543 537 +1 166
2017/01/17 542 371 -1 724
2017/01/16 544 095 -70 288
2017/01/15 614 383 -684
2017/01/14 615 067 -99 668
2017/01/13 714 735 +2 258
2017/01/12 712 477 +134 897
2017/01/11 577 580 +573
2017/01/10 577 007 -2 830
2017/01/09 579 837 -188 710
2017/01/08 768 547 +130 276
2017/01/07 638 271 +82 155
2017/01/06 556 116 -54 744
2017/01/05 610 860 +231 779
2017/01/04 379 081 -1 204
2017/01/03 380 285 +28 115
2017/01/02 352 170 -2 897
2017/01/01 355 067 +8 318
2016/12/31 346 749 -1 557
2016/12/30 348 306 -23 909
2016/12/29 372 215 -4 017
2016/12/28 376 232 -612
2016/12/27 376 844 +27 719
2016/12/26 349 125 -2 309
2016/12/25 351 434 -1 699
2016/12/24 353 133

WIDGET FOR YOUR SITE

DOMAINS WITH THE NEAREST RANK

Domain Rank
5kits.bz 693 391
blogbourne.com 693 392
zimblektv02.blogspot.com.es 693 393
lampukecil.com 693 394
ivoia.com 693 395
pigcms.cn 693 396
fishersci.fr 693 397
mondo.hr 693 398
swim.com 693 399
mrs-edmund-reid.tumblr.com 693 400
filmmaking.net 693 401

DOMAINS WITH THE NEAREST RANK BY TLD .cn

Domain Rank
wdywt.cn 691 383
paraview.cn 691 506
suyoo.cn 691 976
uspard.cn 692 313
hollo.cn 693 103
pigcms.cn 693 396
0xy.cn 693 683
e2esoft.cn 693 861
krspace.cn 695 657
mlworks.cn 695 757
myeducs.cn 695 825